Saint-Laurent, Canada
Current Conditions -  °F | °C
As of 4:00 AM on Sunday 23 Nov 2014 (Local Time) from CYUL Reporting Station
Haze Haze  
Wind Chill: 34°   Ceiling: 500
Heat Index: 39°   Visibility: 4mi
Dew Point: 37°   Wind: 8mph
Humidity: 93%   Direction: 230°SW
Pressure: 29.94"   Gusts: NA
Location:  45.52°N, 73.67°W
Report Text: CYUL 230900Z 23007KT 4SM BR OVC005 04/03 A2994 RMK ST8 SLP141
Loading
Personal Weather Stations






























Interactive Weather Map New forecast layout! Learn more

10-Day Weather Forecast

Advertisements
Track Severe Weather on mobile